Time;durP1;ratioP1;P1;durP2;ratioP2;P2;SDS_P1;SDS_P2;PMS_P1;PMS_P2;Temp;Humidity;BMP_temperature;BMP_pressure;BME280_temperature;BME280_humidity;BME280_pressure;Samples;Min_cycle;Max_cycle;Signal;HPM_P1;HPM_P2
2021/06/12 00:00:14;;;;;;;32.45;27.42;;;18.20;97.60;;;;;;5092680;28;20036;-66
2021/06/12 00:03:01;;;;;;;30.88;27.35;;;18.10;97.80;;;;;;5099122;28;20056;-66
2021/06/12 00:05:47;;;;;;;32.13;28.25;;;18.10;97.90;;;;;;5083014;28;20445;-66
2021/06/12 00:08:33;;;;;;;31.83;28.45;;;18.10;97.90;;;;;;5091899;28;20066;-66
2021/06/12 00:11:19;;;;;;;34.75;29.98;;;18.10;97.90;;;;;;5080561;27;20054;-66
2021/06/12 00:14:05;;;;;;;34.38;29.60;;;18.10;97.90;;;;;;5084440;28;20112;-66
2021/06/12 00:16:51;;;;;;;33.95;29.92;;;18.10;98.00;;;;;;5096648;27;20070;-66
2021/06/12 00:19:36;;;;;;;39.10;33.67;;;18.10;98.00;;;;;;5080618;28;20035;-66
2021/06/12 00:22:19;;;;;;;37.67;32.08;;;18.10;98.10;;;;;;5097071;28;20048;-66
2021/06/12 00:24:47;;;;;;;37.75;30.40;;;18.20;98.20;;;;;;5100186;28;20513;-66
2021/06/12 00:27:13;;;;;;;40.70;31.40;;;18.20;98.20;;;;;;5101166;27;20040;-66
2021/06/12 00:29:39;;;;;;;37.65;30.80;;;18.20;98.30;;;;;;5098985;27;20164;-66
2021/06/12 00:32:13;;;;;;;35.47;30.05;;;18.10;98.30;;;;;;5095488;27;20328;-66
2021/06/12 00:34:40;;;;;;;37.08;29.83;;;18.20;98.20;;;;;;5099069;28;20050;-66
2021/06/12 00:37:07;;;;;;;34.97;29.52;;;18.20;98.20;;;;;;5096613;28;20522;-66
2021/06/12 00:39:43;;;;;;;34.95;29.05;;;18.20;98.20;;;;;;5102607;28;20040;-66
2021/06/12 00:42:09;;;;;;;35.35;29.75;;;18.20;98.20;;;;;;5096811;27;20036;-66
2021/06/12 00:44:55;;;;;;;39.92;31.25;;;18.20;98.10;;;;;;5087079;28;20043;-66
2021/06/12 00:47:21;;;;;;;35.35;29.90;;;18.20;98.20;;;;;;5089001;28;20036;-66
2021/06/12 00:49:51;;;;;;;36.00;28.90;;;18.20;98.20;;;;;;5093790;28;20048;-66
2021/06/12 00:52:21;;;;;;;35.88;28.98;;;18.20;98.20;;;;;;5091407;28;20039;-66
2021/06/12 00:54:47;;;;;;;34.75;30.75;;;18.20;98.30;;;;;;5095431;28;20043;-66
2021/06/12 00:57:13;;;;;;;34.25;30.05;;;18.20;98.30;;;;;;5095953;28;20040;-66
2021/06/12 00:59:40;;;;;;;35.25;29.27;;;18.20;98.30;;;;;;5086579;28;20058;-66
2021/06/12 01:02:09;;;;;;;37.45;29.13;;;18.20;98.40;;;;;;5079855;28;20058;-66
2021/06/12 01:04:42;;;;;;;34.93;29.50;;;18.20;98.40;;;;;;5095617;28;20052;-66
2021/06/12 01:07:11;;;;;;;35.15;29.45;;;18.10;98.30;;;;;;5095065;28;20126;-66
2021/06/12 01:09:54;;;;;;;32.25;28.52;;;18.20;98.40;;;;;;5098701;28;20035;-66
2021/06/12 01:12:43;;;;;;;34.45;30.75;;;18.10;98.40;;;;;;5088984;28;20122;-66
2021/06/12 01:15:59;;;;;;;32.60;28.80;;;18.20;98.40;;;;;;5078927;28;20083;-66
2021/06/12 01:18:49;;;;;;;35.20;30.17;;;18.20;98.40;;;;;;5079098;28;20147;-66
2021/06/12 01:21:41;;;;;;;33.95;29.10;;;18.10;98.50;;;;;;5079248;28;20043;-66
2021/06/12 01:24:55;;;;;;;35.17;28.73;;;18.20;98.50;;;;;;5082729;28;20098;-66
2021/06/12 01:28:10;;;;;;;32.08;28.00;;;18.20;98.50;;;;;;5092060;28;20050;-66
2021/06/12 01:30:56;;;;;;;32.45;28.35;;;18.10;98.30;;;;;;5095707;28;20091;-66
2021/06/12 01:33:46;;;;;;;35.63;27.00;;;18.10;98.50;;;;;;5082758;28;20048;-66
2021/06/12 01:36:32;;;;;;;34.72;27.95;;;18.10;98.60;;;;;;5080504;28;20100;-66
2021/06/12 01:39:21;;;;;;;34.45;29.20;;;18.10;98.60;;;;;;5080767;28;20040;-66
2021/06/12 01:42:09;;;;;;;36.22;28.00;;;18.10;98.60;;;;;;5084203;28;20051;-66
2021/06/12 01:44:57;;;;;;;36.40;29.77;;;18.10;98.60;;;;;;5073256;28;20071;-66
2021/06/12 01:47:44;;;;;;;36.03;29.50;;;18.10;98.60;;;;;;5085930;28;20062;-66
2021/06/12 01:50:30;;;;;;;34.38;27.83;;;18.10;98.70;;;;;;5101351;27;20173;-66
2021/06/12 01:52:58;;;;;;;35.55;30.13;;;18.00;98.70;;;;;;5108373;27;20046;-66
2021/06/12 01:55:45;;;;;;;34.83;28.52;;;18.00;98.70;;;;;;5104769;27;20043;-66
2021/06/12 01:58:33;;;;;;;38.38;30.05;;;18.00;98.80;;;;;;5078868;28;20135;-66
2021/06/12 02:01:22;;;;;;;37.17;30.27;;;18.00;98.90;;;;;;5099797;27;20047;-66
2021/06/12 02:04:10;;;;;;;38.10;29.88;;;18.00;98.90;;;;;;5082330;28;20510;-66
2021/06/12 02:07:02;;;;;;;37.40;30.20;;;17.90;98.90;;;;;;5090599;28;20085;-66
2021/06/12 02:09:51;;;;;;;40.03;30.67;;;17.90;99.10;;;;;;5080387;28;20280;-66
2021/06/12 02:12:37;;;;;;;39.78;31.02;;;17.90;99.00;;;;;;5083814;28;20044;-66
2021/06/12 02:15:25;;;;;;;40.80;31.30;;;17.90;99.00;;;;;;5086065;27;20047;-66
2021/06/12 02:18:12;;;;;;;41.10;31.67;;;17.90;99.10;;;;;;5089506;28;20070;-66
2021/06/12 02:20:59;;;;;;;35.35;29.83;;;17.80;99.20;;;;;;5084486;28;20060;-66
2021/06/12 02:23:47;;;;;;;43.38;33.03;;;17.80;99.20;;;;;;5097635;28;20500;-66
2021/06/12 02:26:38;;;;;;;40.92;31.42;;;17.80;99.30;;;;;;5078678;28;20063;-66
2021/06/12 02:29:25;;;;;;;44.00;31.63;;;17.80;99.30;;;;;;5088012;28;20043;-66
2021/06/12 02:32:14;;;;;;;43.97;32.10;;;17.70;99.30;;;;;;5083699;28;20048;-66
2021/06/12 02:35:00;;;;;;;45.60;34.15;;;17.70;99.50;;;;;;5080328;27;20040;-66
2021/06/12 02:37:46;;;;;;;41.17;32.67;;;17.70;99.60;;;;;;5086714;28;20122;-66
2021/06/12 02:40:33;;;;;;;44.42;34.10;;;17.70;99.60;;;;;;5088652;27;20056;-66
2021/06/12 02:43:19;;;;;;;46.55;35.60;;;17.70;99.60;;;;;;5096561;28;20036;-66
2021/06/12 02:46:09;;;;;;;47.47;35.00;;;17.70;99.70;;;;;;5082871;28;20041;-66
2021/06/12 02:49:01;;;;;;;49.13;36.03;;;17.60;99.70;;;;;;5083546;28;20050;-66
2021/06/12 02:51:56;;;;;;;48.58;37.50;;;17.60;99.80;;;;;;5079326;28;20042;-66
2021/06/12 02:54:45;;;;;;;51.17;39.30;;;17.70;99.80;;;;;;5095265;28;20531;-66
2021/06/12 02:57:32;;;;;;;47.70;36.80;;;17.60;99.90;;;;;;5080397;28;20063;-66
2021/06/12 03:00:21;;;;;;;51.92;36.92;;;17.60;99.90;;;;;;5110280;27;20089;-66
2021/06/12 03:03:07;;;;;;;52.58;39.33;;;17.60;99.90;;;;;;5075639;28;20051;-66
2021/06/12 03:05:56;;;;;;;49.97;38.50;;;17.60;99.90;;;;;;5089102;28;20478;-66
2021/06/12 03:08:45;;;;;;;49.72;39.30;;;17.60;99.90;;;;;;5086154;28;20054;-66
2021/06/12 03:11:15;;;;;;;47.65;37.75;;;17.60;99.90;;;;;;5096953;28;20058;-66
2021/06/12 03:13:43;;;;;;;51.97;40.63;;;17.60;99.90;;;;;;5096765;27;20031;-66
2021/06/12 03:16:17;;;;;;;51.92;40.78;;;17.60;99.90;;;;;;5098233;28;20048;-66
2021/06/12 03:19:05;;;;;;;51.58;39.38;;;17.60;99.90;;;;;;5096062;28;20075;-66
2021/06/12 03:21:51;;;;;;;50.63;40.03;;;17.50;99.90;;;;;;5078902;28;22288;-66
2021/06/12 03:24:38;;;;;;;54.55;41.42;;;17.50;99.90;;;;;;5095318;28;20105;-66
2021/06/12 03:27:24;;;;;;;49.70;39.67;;;17.50;99.90;;;;;;5098778;28;20048;-66
2021/06/12 03:29:55;;;;;;;49.95;39.15;;;17.50;99.90;;;;;;5095477;28;20411;-66
2021/06/12 03:32:22;;;;;;;55.65;41.63;;;17.50;99.90;;;;;;5095260;28;20035;-66
2021/06/12 03:34:48;;;;;;;54.30;40.28;;;17.50;99.90;;;;;;5107587;28;20038;-66
2021/06/12 03:37:32;;;;;;;56.40;41.80;;;17.60;99.90;;;;;;5094511;28;20051;-66
2021/06/12 03:39:58;;;;;;;51.97;40.75;;;17.60;99.90;;;;;;5095334;28;20423;-66
2021/06/12 03:42:45;;;;;;;57.60;41.92;;;17.60;99.90;;;;;;5082181;28;20044;-66
2021/06/12 03:45:16;;;;;;;51.25;41.50;;;17.60;99.90;;;;;;5103904;28;20052;-66
2021/06/12 03:47:43;;;;;;;54.60;42.33;;;17.60;99.90;;;;;;5097663;28;20046;-66
2021/06/12 03:50:18;;;;;;;54.15;42.33;;;17.60;99.90;;;;;;5105998;28;20069;-66
2021/06/12 03:53:05;;;;;;;52.97;41.30;;;17.70;99.90;;;;;;5055063;28;20181;-66
2021/06/12 03:55:55;;;;;;;52.45;40.63;;;17.60;99.90;;;;;;5105086;28;20124;-66
2021/06/12 03:58:43;;;;;;;51.65;41.83;;;17.70;99.90;;;;;;5079612;28;20039;-66
2021/06/12 04:01:29;;;;;;;54.08;42.67;;;17.70;99.90;;;;;;5087340;28;20048;-66
2021/06/12 04:04:16;;;;;;;50.55;40.88;;;17.70;99.90;;;;;;5082431;28;20035;-66
2021/06/12 04:07:01;;;;;;;49.80;40.75;;;17.70;99.90;;;;;;5086241;28;20126;-66
2021/06/12 04:09:28;;;;;;;51.85;41.28;;;17.80;99.90;;;;;;5098790;28;20039;-66
2021/06/12 04:11:57;;;;;;;48.08;40.65;;;17.80;99.90;;;;;;5109184;28;20044;-66
2021/06/12 04:14:23;;;;;;;47.28;40.83;;;17.90;99.90;;;;;;5099462;28;20462;-66
2021/06/12 04:17:09;;;;;;;51.15;40.97;;;17.90;99.90;;;;;;5088740;28;20040;-66
2021/06/12 04:19:55;;;;;;;47.45;37.97;;;17.90;99.90;;;;;;5080694;28;20035;-66
2021/06/12 04:22:41;;;;;;;46.65;36.95;;;17.90;99.90;;;;;;5092416;28;20050;-66
2021/06/12 04:25:27;;;;;;;40.50;36.10;;;17.90;99.90;;;;;;5101017;28;20039;-66
2021/06/12 04:28:12;;;;;;;43.13;36.20;;;17.90;99.90;;;;;;5087577;28;20046;-66
2021/06/12 04:30:58;;;;;;;43.35;34.35;;;17.90;99.90;;;;;;5081297;28;20036;-66
2021/06/12 04:33:44;;;;;;;40.67;32.20;;;17.90;99.90;;;;;;5103679;28;20050;-66
2021/06/12 04:36:30;;;;;;;38.13;32.78;;;17.90;99.90;;;;;;5082189;28;20040;-66
2021/06/12 04:39:16;;;;;;;38.38;31.20;;;18.00;99.80;;;;;;5090831;28;20048;-66
2021/06/12 04:42:01;;;;;;;36.45;29.90;;;18.00;99.80;;;;;;5087116;28;20036;-66
2021/06/12 04:44:48;;;;;;;36.85;29.20;;;18.00;99.70;;;;;;5093687;28;20051;-66
2021/06/12 04:47:15;;;;;;;33.80;27.52;;;18.00;99.60;;;;;;5103678;28;20044;-66
2021/06/12 04:49:41;;;;;;;33.13;28.00;;;18.00;99.60;;;;;;5103480;28;20067;-66
2021/06/12 04:52:13;;;;;;;33.60;27.00;;;18.10;99.50;;;;;;5093809;28;20485;-66
2021/06/12 04:54:39;;;;;;;33.67;24.95;;;18.10;99.50;;;;;;5105593;28;20035;-66
2021/06/12 04:57:06;;;;;;;35.22;25.73;;;18.10;99.40;;;;;;5099374;28;20509;-66
2021/06/12 04:59:32;;;;;;;31.60;23.40;;;18.20;99.20;;;;;;5084377;28;20036;-66
2021/06/12 05:01:58;;;;;;;32.00;24.15;;;18.20;99.00;;;;;;5094947;28;20097;-66
2021/06/12 05:04:23;;;;;;;30.13;22.98;;;18.10;98.90;;;;;;5104724;28;20056;-66
2021/06/12 05:06:49;;;;;;;29.95;23.05;;;18.20;98.90;;;;;;5094985;28;20071;-66
2021/06/12 05:09:23;;;;;;;26.88;22.10;;;18.10;98.80;;;;;;5105094;28;20467;-66
2021/06/12 05:11:51;;;;;;;29.85;23.05;;;18.10;98.90;;;;;;5098738;28;20040;-66
2021/06/12 05:14:18;;;;;;;29.73;22.35;;;18.00;99.10;;;;;;5104039;28;20035;-66
2021/06/12 05:16:45;;;;;;;28.00;21.75;;;18.10;99.00;;;;;;5098630;28;20043;-66
2021/06/12 05:19:11;;;;;;;25.77;21.90;;;18.10;99.40;;;;;;5102998;28;20040;-66
2021/06/12 05:21:39;;;;;;;23.50;19.90;;;18.20;99.00;;;;;;5099335;28;20474;-66
2021/06/12 05:24:08;;;;;;;29.38;19.95;;;18.20;98.90;;;;;;5109461;28;20035;-66
2021/06/12 05:26:40;;;;;;;21.35;17.98;;;18.30;98.80;;;;;;5103130;28;20066;-66
2021/06/12 05:29:08;;;;;;;24.50;18.25;;;18.40;98.30;;;;;;5109550;28;20028;-66
2021/06/12 05:31:37;;;;;;;23.23;18.98;;;18.40;98.10;;;;;;5103621;28;20257;-66
2021/06/12 05:34:06;;;;;;;22.98;17.63;;;18.30;98.20;;;;;;5107361;28;20046;-66
2021/06/12 05:36:32;;;;;;;22.60;17.05;;;18.40;98.30;;;;;;5106602;28;20605;-66
2021/06/12 05:38:58;;;;;;;23.58;17.13;;;18.40;98.20;;;;;;5105087;28;20092;-66
2021/06/12 05:41:24;;;;;;;21.13;17.10;;;18.40;98.30;;;;;;5106174;28;20040;-66
2021/06/12 05:43:50;;;;;;;18.92;16.15;;;18.50;98.30;;;;;;5102598;28;20497;-66
2021/06/12 05:46:16;;;;;;;20.98;15.02;;;18.60;98.00;;;;;;5108418;28;20158;-66
2021/06/12 05:48:43;;;;;;;19.83;15.10;;;18.60;97.80;;;;;;5099450;28;20089;-66
2021/06/12 05:51:11;;;;;;;19.02;14.88;;;18.70;97.80;;;;;;5105079;28;20031;-66
2021/06/12 05:53:37;;;;;;;17.08;13.73;;;18.70;97.50;;;;;;5103250;28;20040;-66
2021/06/12 05:56:04;;;;;;;16.83;12.98;;;18.70;97.40;;;;;;5108309;28;20031;-66
2021/06/12 05:58:33;;;;;;;14.15;12.15;;;18.70;97.30;;;;;;5100570;28;20044;-66
2021/06/12 06:01:01;;;;;;;19.67;13.18;;;18.70;97.20;;;;;;5107387;28;20036;-66
2021/06/12 06:03:27;;;;;;;15.45;11.88;;;18.70;97.20;;;;;;5100298;28;20058;-66
2021/06/12 06:05:53;;;;;;;16.88;11.88;;;18.70;97.00;;;;;;5109044;28;20517;-66
2021/06/12 06:08:19;;;;;;;15.43;11.27;;;18.70;96.80;;;;;;5103113;28;20048;-66
2021/06/12 06:10:46;;;;;;;15.27;11.63;;;18.70;96.90;;;;;;5111393;28;20443;-66
2021/06/12 06:13:19;;;;;;;17.60;10.35;;;18.80;96.70;;;;;;5099370;28;20054;-66
2021/06/12 06:15:56;;;;;;;14.93;9.68;;;18.80;96.30;;;;;;5106065;28;20032;-66
2021/06/12 06:18:42;;;;;;;13.98;10.05;;;18.80;96.20;;;;;;5088598;28;20051;-67
2021/06/12 06:21:19;;;;;;;14.90;10.20;;;18.70;95.50;;;;;;5106572;28;20040;-66
2021/06/12 06:23:48;;;;;;;15.40;10.50;;;18.70;95.70;;;;;;5101131;28;20047;-66
2021/06/12 06:26:15;;;;;;;11.98;9.18;;;18.70;95.50;;;;;;5107622;28;20452;-66
2021/06/12 06:28:43;;;;;;;13.32;10.07;;;18.70;95.50;;;;;;5106881;28;20487;-66
2021/06/12 06:31:10;;;;;;;38.28;34.28;;;18.70;95.00;;;;;;5104583;28;20415;-66
2021/06/12 06:33:36;;;;;;;21.85;16.65;;;18.70;95.20;;;;;;5105775;28;20043;-66
2021/06/12 06:36:09;;;;;;;13.98;9.60;;;18.70;95.00;;;;;;5098440;28;20031;-66
2021/06/12 06:38:35;;;;;;;16.00;8.73;;;18.80;95.00;;;;;;5110696;28;20112;-66
2021/06/12 06:41:01;;;;;;;12.27;8.15;;;18.80;94.80;;;;;;5102588;28;20460;-66
2021/06/12 06:43:27;;;;;;;10.70;6.95;;;18.90;94.90;;;;;;5106453;28;20040;-66
2021/06/12 06:45:54;;;;;;;10.93;6.60;;;19.00;93.50;;;;;;5100882;28;20073;-66
2021/06/12 06:48:26;;;;;;;9.25;5.93;;;19.00;93.30;;;;;;5104809;28;20059;-66
2021/06/12 06:50:52;;;;;;;10.65;5.60;;;19.00;93.50;;;;;;5096719;28;20051;-66
2021/06/12 06:53:32;;;;;;;8.25;5.47;;;19.10;93.10;;;;;;5106615;28;20043;-66
2021/06/12 06:56:04;;;;;;;9.05;5.60;;;19.20;92.60;;;;;;5103648;28;20047;-66
2021/06/12 06:58:40;;;;;;;11.88;7.57;;;19.20;91.20;;;;;;5105497;27;20047;-66
2021/06/12 07:01:08;;;;;;;8.45;5.57;;;19.20;92.00;;;;;;5101316;28;20079;-66
2021/06/12 07:03:34;;;;;;;7.93;4.88;;;19.30;91.50;;;;;;5101863;28;20491;-66
2021/06/12 07:05:59;;;;;;;10.15;4.85;;;19.30;90.90;;;;;;5099354;28;20044;-66
2021/06/12 07:08:29;;;;;;;8.90;5.00;;;19.30;90.30;;;;;;5100755;28;20055;-66
2021/06/12 07:10:55;;;;;;;5.38;3.70;;;19.20;91.00;;;;;;5100270;28;20502;-66
2021/06/12 07:13:23;;;;;;;10.02;3.47;;;19.20;90.90;;;;;;5099164;28;20130;-66
2021/06/12 07:15:49;;;;;;;27.60;23.77;;;19.30;89.70;;;;;;5080256;28;20073;-66
2021/06/12 07:18:34;;;;;;;7.53;3.72;;;19.20;88.60;;;;;;5083314;28;20035;-66
2021/06/12 07:21:00;;;;;;;6.63;3.88;;;19.30;89.20;;;;;;5088627;28;20169;-66
2021/06/12 07:23:35;;;;;;;9.27;4.20;;;19.30;90.10;;;;;;5097344;28;20484;-66
2021/06/12 07:26:07;;;;;;;6.32;3.70;;;19.50;90.70;;;;;;5095522;28;20047;-67
2021/06/12 07:28:34;;;;;;;6.85;3.80;;;19.50;90.50;;;;;;5106216;28;20043;-66
2021/06/12 07:31:01;;;;;;;10.90;4.65;;;19.60;90.30;;;;;;5107257;28;20036;-66
2021/06/12 07:33:27;;;;;;;7.05;3.60;;;19.70;90.40;;;;;;5101600;28;20502;-66
2021/06/12 07:35:53;;;;;;;8.13;3.08;;;19.90;88.70;;;;;;5106732;28;20032;-66
2021/06/12 07:38:19;;;;;;;7.78;3.33;;;19.90;88.40;;;;;;5100591;28;20502;-66
2021/06/12 07:40:45;;;;;;;12.32;6.57;;;20.00;87.30;;;;;;5102476;28;20043;-67
2021/06/12 07:43:11;;;;;;;7.75;3.55;;;20.00;85.60;;;;;;5094265;28;20408;-66
2021/06/12 07:45:37;;;;;;;6.50;3.05;;;20.00;86.50;;;;;;5096755;28;20043;-66
2021/06/12 07:48:04;;;;;;;6.75;3.40;;;20.10;85.90;;;;;;5087563;28;20125;-67
2021/06/12 07:50:31;;;;;;;5.25;2.78;;;20.10;85.10;;;;;;5102210;28;20412;-67
2021/06/12 07:52:56;;;;;;;6.43;3.10;;;20.20;86.60;;;;;;5093567;28;20042;-66
2021/06/12 07:55:22;;;;;;;7.13;2.97;;;20.30;84.10;;;;;;5097307;28;20309;-66
2021/06/12 07:57:48;;;;;;;7.10;3.55;;;20.40;84.80;;;;;;5098437;27;20451;-66
2021/06/12 08:00:15;;;;;;;7.35;3.17;;;20.40;84.40;;;;;;5102441;28;20206;-67
2021/06/12 08:02:41;;;;;;;6.63;3.13;;;20.50;82.50;;;;;;5094488;28;20533;-67
2021/06/12 08:05:07;;;;;;;8.48;3.30;;;20.40;80.70;;;;;;5096103;27;20035;-67
2021/06/12 08:07:33;;;;;;;6.57;2.40;;;20.30;80.00;;;;;;5102354;28;20102;-67
2021/06/12 08:10:02;;;;;;;8.02;3.05;;;20.40;79.80;;;;;;5094552;28;20046;-67
2021/06/12 08:12:31;;;;;;;6.80;2.45;;;20.40;80.80;;;;;;5098176;28;20051;-67
2021/06/12 08:14:58;;;;;;;9.02;2.83;;;20.50;76.10;;;;;;5100310;28;20139;-67
2021/06/12 08:17:24;;;;;;;10.68;2.78;;;20.50;75.10;;;;;;5102057;28;20464;-68
2021/06/12 08:19:50;;;;;;;6.93;2.70;;;20.40;74.60;;;;;;5095699;28;20035;-68
2021/06/12 08:22:15;;;;;;;10.05;2.60;;;20.40;73.80;;;;;;5106972;28;20092;-67
2021/06/12 08:24:41;;;;;;;5.97;2.50;;;20.20;73.80;;;;;;5098181;28;20035;-67
2021/06/12 08:27:07;;;;;;;6.15;2.60;;;20.00;74.40;;;;;;5104920;28;20494;-68
2021/06/12 08:29:34;;;;;;;6.70;2.38;;;19.80;75.90;;;;;;5099849;28;20076;-68
2021/06/12 08:31:59;;;;;;;13.77;3.75;;;19.70;75.60;;;;;;5103760;28;20039;-68
2021/06/12 08:34:25;;;;;;;8.35;2.55;;;19.60;75.60;;;;;;5097416;28;20588;-68
2021/06/12 08:36:51;;;;;;;6.72;2.88;;;19.60;75.70;;;;;;5105424;28;20050;-67
2021/06/12 08:39:18;;;;;;;10.95;3.53;;;19.70;77.60;;;;;;5093456;28;20040;-67
2021/06/12 08:41:44;;;;;;;9.00;2.63;;;19.80;77.60;;;;;;5105091;28;20107;-67
2021/06/12 08:44:11;;;;;;;7.25;2.63;;;19.90;77.00;;;;;;5092762;28;20118;-67
2021/06/12 08:46:39;;;;;;;8.50;2.65;;;20.10;76.50;;;;;;5102546;28;20067;-67
2021/06/12 08:49:05;;;;;;;6.85;2.95;;;20.40;75.70;;;;;;5101418;28;20035;-67
2021/06/12 08:51:33;;;;;;;8.13;2.60;;;20.70;75.00;;;;;;5085260;28;20454;-67
2021/06/12 08:53:59;;;;;;;6.15;2.17;;;20.90;73.50;;;;;;5092373;28;20040;-67
2021/06/12 08:56:25;;;;;;;7.63;2.60;;;21.00;70.50;;;;;;5091895;28;20040;-67
2021/06/12 08:58:50;;;;;;;6.75;2.33;;;20.70;68.60;;;;;;5099851;28;20130;-67
2021/06/12 09:01:16;;;;;;;7.45;2.35;;;20.60;71.00;;;;;;5095305;28;20051;-67
2021/06/12 09:03:44;;;;;;;6.90;2.28;;;20.60;71.10;;;;;;5095934;28;20048;-67
2021/06/12 09:06:12;;;;;;;7.30;2.78;;;20.60;69.20;;;;;;5090709;28;20044;-67
2021/06/12 09:08:40;;;;;;;5.75;2.30;;;20.50;71.50;;;;;;5081040;28;20035;-67
2021/06/12 09:11:17;;;;;;;7.03;1.90;;;20.60;73.30;;;;;;5091539;28;20066;-67
2021/06/12 09:13:57;;;;;;;5.97;2.63;;;20.90;66.50;;;;;;5096633;28;20420;-67
2021/06/12 09:16:28;;;;;;;6.20;2.03;;;21.10;68.40;;;;;;5095067;28;20040;-67
2021/06/12 09:18:57;;;;;;;7.90;2.40;;;21.10;65.20;;;;;;5100694;28;20036;-67
2021/06/12 09:21:24;;;;;;;7.30;2.22;;;20.90;64.60;;;;;;5096972;28;20545;-67
2021/06/12 09:23:51;;;;;;;8.98;2.28;;;20.60;63.80;;;;;;5097004;28;20533;-67
2021/06/12 09:26:19;;;;;;;8.57;2.30;;;20.40;66.40;;;;;;5100027;28;20049;-67
2021/06/12 09:28:46;;;;;;;9.65;2.25;;;20.10;66.40;;;;;;5099291;28;20032;-67
2021/06/12 09:31:27;;;;;;;7.82;2.38;;;20.10;68.20;;;;;;5088825;28;20509;-67
2021/06/12 09:33:55;;;;;;;7.25;2.95;;;20.20;68.40;;;;;;5093217;28;20046;-67
2021/06/12 09:36:35;;;;;;;6.82;2.00;;;20.70;69.30;;;;;;5096413;28;20048;-67
2021/06/12 09:39:17;;;;;;;6.72;1.60;;;21.10;60.00;;;;;;5099420;28;20035;-67
2021/06/12 09:41:48;;;;;;;6.78;1.70;;;21.20;59.80;;;;;;5090513;28;20110;-68
2021/06/12 09:44:41;;;;;;;7.38;1.92;;;21.40;62.70;;;;;;5093890;28;20044;-68
2021/06/12 09:47:22;;;;;;;5.22;1.70;;;21.20;61.00;;;;;;5097367;28;20471;-68
2021/06/12 09:49:49;;;;;;;6.53;1.88;;;20.80;61.10;;;;;;5096479;28;20048;-68
2021/06/12 09:52:18;;;;;;;6.47;2.35;;;20.70;66.20;;;;;;5089416;28;20043;-68
2021/06/12 09:54:49;;;;;;;9.07;2.33;;;20.50;64.00;;;;;;5095252;28;20097;-68
2021/06/12 09:57:24;;;;;;;6.20;2.03;;;20.50;65.60;;;;;;5091566;28;20487;-68
2021/06/12 09:59:56;;;;;;;9.10;2.35;;;20.70;64.60;;;;;;5095669;28;20476;-68
2021/06/12 10:02:36;;;;;;;8.57;2.50;;;21.00;66.10;;;;;;5075281;28;20052;-68
2021/06/12 10:05:03;;;;;;;7.57;1.60;;;21.20;64.40;;;;;;5101448;28;20039;-68
2021/06/12 10:07:29;;;;;;;4.95;1.45;;;21.30;62.50;;;;;;5100647;28;20047;-68
2021/06/12 10:10:00;;;;;;;6.72;1.83;;;21.10;61.50;;;;;;5099831;28;20036;-68
2021/06/12 10:12:25;;;;;;;9.85;1.70;;;21.20;60.30;;;;;;5103328;28;20097;-68
2021/06/12 10:14:52;;;;;;;6.57;1.70;;;21.50;62.20;;;;;;5098639;28;20040;-68
2021/06/12 10:17:20;;;;;;;5.50;1.13;;;21.90;62.50;;;;;;5102326;28;20054;-68
2021/06/12 10:19:50;;;;;;;8.52;1.60;;;22.10;57.30;;;;;;5093683;28;20032;-68
2021/06/12 10:22:17;;;;;;;5.20;1.52;;;21.90;57.70;;;;;;5100060;28;20071;-68
2021/06/12 10:24:42;;;;;;;6.72;1.30;;;21.90;58.10;;;;;;5103077;28;20407;-68
2021/06/12 10:27:09;;;;;;;6.00;1.42;;;22.00;57.40;;;;;;5099865;28;20559;-68
2021/06/12 10:29:36;;;;;;;8.60;1.67;;;21.80;56.90;;;;;;5096898;28;20028;-68
2021/06/12 10:32:04;;;;;;;4.85;1.60;;;21.70;58.30;;;;;;5106883;28;20023;-68
2021/06/12 10:34:31;;;;;;;5.50;2.03;;;21.90;58.90;;;;;;5096811;28;20039;-68
2021/06/12 10:37:06;;;;;;;8.15;1.05;;;22.30;57.40;;;;;;5099573;28;20436;-68
2021/06/12 10:39:35;;;;;;;5.55;1.40;;;22.70;54.60;;;;;;5095545;28;20092;-68
2021/06/12 10:42:19;;;;;;;7.15;1.42;;;22.50;54.00;;;;;;5106388;28;20028;-68
2021/06/12 10:44:53;;;;;;;6.15;1.35;;;22.20;54.10;;;;;;5095465;28;20475;-68
2021/06/12 10:47:49;;;;;;;8.63;1.50;;;21.90;56.30;;;;;;5099604;28;20036;-68
2021/06/12 10:50:44;;;;;;;4.93;1.20;;;21.90;56.50;;;;;;5097923;28;20120;-68
2021/06/12 10:53:33;;;;;;;5.65;1.23;;;21.90;56.40;;;;;;5103309;28;20039;-68
2021/06/12 10:56:03;;;;;;;5.32;1.33;;;22.40;55.10;;;;;;5093756;28;20043;-68
2021/06/12 10:58:29;;;;;;;6.68;1.35;;;23.00;54.90;;;;;;5094961;28;20036;-68
2021/06/12 11:01:14;;;;;;;6.65;1.52;;;23.50;55.00;;;;;;5095142;28;20143;-68
2021/06/12 11:09:19;;;;;;;8.80;1.65;;;23.70;52.20;;;;;;5104542;28;20483;-69
2021/06/12 11:11:57;;;;;;;6.13;1.40;;;23.10;52.40;;;;;;5097601;28;20056;-69
2021/06/12 11:14:23;;;;;;;10.07;1.50;;;22.70;54.10;;;;;;5098686;28;20043;-69
2021/06/12 11:17:10;;;;;;;5.13;1.20;;;22.50;56.70;;;;;;5094581;28;20571;-69
2021/06/12 11:19:39;;;;;;;4.25;1.20;;;22.70;54.30;;;;;;5098092;28;20070;-71
2021/06/12 11:22:36;;;;;;;4.00;1.05;;;22.50;55.10;;;;;;5095484;28;20399;-68
2021/06/12 11:25:02;;;;;;;8.73;1.42;;;22.50;53.20;;;;;;5094865;28;20127;-68
2021/06/12 11:27:33;;;;;;;4.38;1.17;;;22.70;56.00;;;;;;5099021;28;20111;-69
2021/06/12 11:30:17;;;;;;;6.75;1.17;;;22.80;54.60;;;;;;5100950;28;20042;-66
2021/06/12 11:32:59;;;;;;;7.00;1.15;;;23.10;52.80;;;;;;5095495;28;20035;-67
2021/06/12 11:35:52;;;;;;;6.80;1.27;;;23.10;51.20;;;;;;5108012;28;20606;-66
2021/06/12 11:38:20;;;;;;;6.45;1.08;;;22.70;52.10;;;;;;5095597;28;20061;-68
2021/06/12 11:40:52;;;;;;;3.88;1.20;;;22.50;52.50;;;;;;5098460;28;20072;-69
2021/06/12 11:43:36;;;;;;;6.22;1.27;;;22.70;53.00;;;;;;5096761;28;20036;-68
2021/06/12 11:46:03;;;;;;;;;;;23.30;52.20;;;;;;5099943;28;20028;-69
2021/06/12 11:48:29;;;;;;;5.68;1.48;;;23.50;51.10;;;;;;5092513;28;19916;-68
2021/06/12 11:50:58;;;;;;;4.32;1.30;;;23.50;49.70;;;;;;5095484;28;20040;-68
2021/06/12 11:53:34;;;;;;;9.73;0.95;;;23.70;53.00;;;;;;5095850;28;20040;-68
2021/06/12 11:56:01;;;;;;;8.63;1.52;;;23.60;50.20;;;;;;5095812;28;20517;-69
2021/06/12 11:58:27;;;;;;;6.05;1.50;;;23.30;51.40;;;;;;5088493;28;20066;-68
2021/06/12 12:00:53;;;;;;;4.93;1.00;;;22.90;53.00;;;;;;5097717;28;20043;-68
2021/06/12 12:03:19;;;;;;;6.72;1.20;;;22.40;51.60;;;;;;5092384;28;20063;-68
2021/06/12 12:05:50;;;;;;;5.85;0.90;;;21.90;53.50;;;;;;5093143;28;20082;-69
2021/06/12 12:08:21;;;;;;;5.28;0.90;;;21.60;53.30;;;;;;5092250;28;20093;-68
2021/06/12 12:10:51;;;;;;;4.05;0.60;;;21.70;53.40;;;;;;5101018;28;20040;-68
2021/06/12 12:13:46;;;;;;;2.58;0.70;;;22.20;52.30;;;;;;5093940;28;20036;-69
2021/06/12 12:16:22;;;;;;;6.10;0.98;;;22.40;51.40;;;;;;5095190;28;20195;-68
2021/06/12 12:18:50;;;;;;;4.32;0.95;;;22.80;52.20;;;;;;5086394;28;20036;-68
2021/06/12 12:21:34;;;;;;;5.68;1.05;;;22.90;52.50;;;;;;5093758;28;20044;-70
2021/06/12 12:24:01;;;;;;;;;;;23.10;50.20;;;;;;5088866;28;20036;-69
2021/06/12 12:26:27;;;;;;;2.22;0.60;;;23.00;49.80;;;;;;5094613;28;20295;-68
2021/06/12 12:29:21;;;;;;;3.95;0.70;;;23.20;50.60;;;;;;5092854;28;20040;-68
2021/06/12 12:31:49;;;;;;;3.72;0.85;;;23.10;48.20;;;;;;5098763;28;20070;-68
2021/06/12 12:34:29;;;;;;;3.00;0.50;;;22.90;51.40;;;;;;5090892;28;20036;-69
2021/06/12 12:36:55;;;;;;;7.75;0.73;;;22.90;48.70;;;;;;5095319;28;20110;-68
2021/06/12 12:39:22;;;;;;;5.15;0.77;;;22.80;48.80;;;;;;5094344;28;20093;-69
2021/06/12 12:41:58;;;;;;;3.50;0.70;;;22.80;50.40;;;;;;5094730;28;20091;-69
2021/06/12 12:44:26;;;;;;;5.90;1.10;;;22.60;50.00;;;;;;5093943;28;20032;-68
2021/06/12 12:46:53;;;;;;;4.47;0.63;;;22.30;51.40;;;;;;5078116;28;20031;-68
2021/06/12 12:49:25;;;;;;;5.35;0.75;;;22.40;52.50;;;;;;5096659;28;20039;-69
2021/06/12 12:51:59;;;;;;;5.43;0.90;;;22.70;52.70;;;;;;5098884;28;20449;-69
2021/06/12 12:54:33;;;;;;;3.83;0.70;;;22.60;50.40;;;;;;5093914;28;20040;-69
2021/06/12 12:57:09;;;;;;;5.55;0.93;;;22.70;52.60;;;;;;5098096;28;20119;-69
2021/06/12 12:59:45;;;;;;;5.65;0.90;;;22.90;50.80;;;;;;5088315;28;20489;-69
2021/06/12 13:02:12;;;;;;;6.63;0.88;;;22.60;50.80;;;;;;5093767;28;20067;-68
2021/06/12 13:04:40;;;;;;;6.13;0.90;;;22.10;52.20;;;;;;5094869;28;20044;-71
2021/06/12 13:07:14;;;;;;;4.10;0.80;;;22.00;52.60;;;;;;5094559;28;20044;-69
2021/06/12 13:09:46;;;;;;;4.18;0.90;;;22.00;53.90;;;;;;5086699;28;20047;-68
2021/06/12 13:12:15;;;;;;;4.60;0.88;;;22.00;53.40;;;;;;5104673;28;20111;-68
2021/06/12 13:14:43;;;;;;;7.82;1.40;;;21.70;54.30;;;;;;5095398;28;20174;-69
2021/06/12 13:17:17;;;;;;;5.30;0.98;;;21.40;55.10;;;;;;5097023;28;20107;-68
2021/06/12 13:19:48;;;;;;;6.68;1.00;;;21.40;55.60;;;;;;5086212;28;20047;-69